createdAt,value
2022-12-14T00:01:34.307Z,12.38
2022-12-14T00:04:00.970Z,11.88
2022-12-14T00:06:33.496Z,12.20
2022-12-14T00:09:03.071Z,12.50
2022-12-14T00:11:29.667Z,12.02
2022-12-14T00:13:59.626Z,11.90
2022-12-14T00:16:29.302Z,11.15
2022-12-14T00:18:57.752Z,10.93
2022-12-14T00:21:25.159Z,12.15
2022-12-14T00:23:52.751Z,10.57
2022-12-14T00:26:24.917Z,10.77
2022-12-14T00:28:54.294Z,11.80
2022-12-14T00:31:22.354Z,10.98
2022-12-14T00:33:50.297Z,11.77
2022-12-14T00:36:17.170Z,12.25
2022-12-14T00:38:44.141Z,11.45
2022-12-14T00:41:11.371Z,11.93
2022-12-14T00:43:38.020Z,12.30
2022-12-14T00:46:04.893Z,11.27
2022-12-14T00:48:32.363Z,10.95
2022-12-14T00:50:59.661Z,10.63
2022-12-14T00:53:26.353Z,11.45
2022-12-14T00:55:53.195Z,11.27
2022-12-14T00:58:22.270Z,12.10
2022-12-14T01:01:02.127Z,12.07
2022-12-14T01:03:29.098Z,11.75
2022-12-14T01:05:56.387Z,12.20
2022-12-14T01:08:24.009Z,10.95
2022-12-14T01:10:51.323Z,11.27
2022-12-14T01:13:18.130Z,11.70
2022-12-14T01:15:44.926Z,11.57
2022-12-14T01:18:11.651Z,11.60
2022-12-14T01:20:38.288Z,12.13
2022-12-14T01:23:04.923Z,10.85
2022-12-14T01:25:31.634Z,11.55
2022-12-14T01:27:58.302Z,11.77
2022-12-14T01:30:25.084Z,11.57
2022-12-14T01:32:51.717Z,11.80
2022-12-14T01:35:18.338Z,11.55
2022-12-14T01:37:44.928Z,10.98
2022-12-14T01:40:15.976Z,12.05
2022-12-14T01:42:42.617Z,10.45
2022-12-14T01:45:22.188Z,11.13
2022-12-14T01:47:55.884Z,10.07
2022-12-14T01:50:39.722Z,12.77
2022-12-14T01:53:11.529Z,10.77
2022-12-14T01:55:41.592Z,11.20
2022-12-14T01:58:21.882Z,11.10
2022-12-14T02:00:50.254Z,11.02
2022-12-14T02:03:22.487Z,11.98
2022-12-14T02:05:55.026Z,11.80
2022-12-14T02:08:24.311Z,11.05
2022-12-14T02:10:53.292Z,10.88
2022-12-14T02:13:26.775Z,10.90
2022-12-14T02:15:53.812Z,10.68
2022-12-14T02:18:23.631Z,10.98
2022-12-14T02:21:18.957Z,11.30
2022-12-14T02:24:04.265Z,10.43
2022-12-14T02:27:01.873Z,10.93
2022-12-14T02:29:47.193Z,9.50
2022-12-14T02:32:32.603Z,9.23
2022-12-14T02:35:20.210Z,11.48
2022-12-14T02:37:57.076Z,9.73
2022-12-14T02:40:47.792Z,8.77
2022-12-14T02:43:29.079Z,10.02
2022-12-14T02:46:20.565Z,10.82
2022-12-14T02:49:15.907Z,10.98
2022-12-14T02:51:59.145Z,10.13
2022-12-14T02:54:47.082Z,9.85
2022-12-14T02:57:25.118Z,10.27
2022-12-14T02:59:56.535Z,9.60
2022-12-14T03:02:23.839Z,11.15
2022-12-14T03:04:51.010Z,10.73
2022-12-14T03:07:33.525Z,10.73
2022-12-14T03:10:11.316Z,11.13
2022-12-14T03:12:41.285Z,10.00
2022-12-14T03:15:11.485Z,11.05
2022-12-14T03:17:39.669Z,10.88
2022-12-14T03:20:12.307Z,12.20
2022-12-14T03:22:47.638Z,11.57
2022-12-14T03:25:21.544Z,11.20
2022-12-14T03:27:56.217Z,9.85
2022-12-14T03:30:57.733Z,10.32
2022-12-14T03:33:16.722Z,10.80
2022-12-14T03:35:51.472Z,9.93
2022-12-14T03:38:27.402Z,10.40
2022-12-14T03:41:14.148Z,11.07
2022-12-14T03:44:02.472Z,10.98
2022-12-14T03:46:47.561Z,8.73
2022-12-14T03:49:39.521Z,10.75
2022-12-14T03:52:13.107Z,10.05
2022-12-14T03:55:09.539Z,10.40
2022-12-14T03:57:59.539Z,10.35
2022-12-14T04:00:29.164Z,10.85
2022-12-14T04:03:08.188Z,10.80
2022-12-14T04:05:59.098Z,11.07
2022-12-14T04:08:46.603Z,10.93
2022-12-14T04:11:34.149Z,11.23
2022-12-14T04:14:32.324Z,10.00
2022-12-14T04:17:21.930Z,10.25
2022-12-14T04:19:56.239Z,10.18
2022-12-14T04:22:27.898Z,9.90
2022-12-14T04:25:21.186Z,10.02
2022-12-14T04:28:31.306Z,12.32
2022-12-14T04:31:02.904Z,10.05
2022-12-14T04:33:47.508Z,10.45
2022-12-14T04:36:42.005Z,9.77
2022-12-14T04:39:27.695Z,10.70
2022-12-14T04:41:58.743Z,10.98
2022-12-14T04:44:32.527Z,10.48
2022-12-14T04:47:01.638Z,10.82
2022-12-14T04:49:40.434Z,9.48
2022-12-14T04:52:35.066Z,10.38
2022-12-14T04:55:31.113Z,9.70
2022-12-14T04:58:04.231Z,9.55
2022-12-14T05:00:34.678Z,10.15
2022-12-14T05:03:25.899Z,10.68
2022-12-14T05:06:08.270Z,10.90
2022-12-14T05:11:56.167Z,10.55
2022-12-14T05:14:47.284Z,10.45
2022-12-14T05:17:14.775Z,9.85
2022-12-14T05:19:49.715Z,9.52
2022-12-14T05:22:17.651Z,9.63
2022-12-14T05:24:44.282Z,10.75
2022-12-14T05:27:10.935Z,9.35
2022-12-14T05:29:37.670Z,9.18
2022-12-14T05:32:04.665Z,10.32
2022-12-14T05:34:31.690Z,9.70
2022-12-14T05:36:58.286Z,9.43
2022-12-14T05:39:24.992Z,10.55
2022-12-14T05:41:53.230Z,9.63
2022-12-14T05:44:20.099Z,10.20
2022-12-14T05:46:46.871Z,9.30
2022-12-14T05:49:13.715Z,10.35
2022-12-14T05:51:40.581Z,10.55
2022-12-14T05:54:07.290Z,9.00
2022-12-14T05:56:33.851Z,10.15
2022-12-14T05:59:00.523Z,9.60
2022-12-14T06:01:27.175Z,8.45
2022-12-14T06:03:54.221Z,10.13
2022-12-14T06:06:21.257Z,9.73
2022-12-14T06:08:48.329Z,9.35
2022-12-14T06:11:20.670Z,10.02
2022-12-14T06:13:48.338Z,9.38
2022-12-14T06:16:24.568Z,10.32
2022-12-14T06:18:53.531Z,10.95
2022-12-14T06:21:22.867Z,9.52
2022-12-14T06:23:49.517Z,9.77
2022-12-14T06:26:17.490Z,10.88
2022-12-14T06:28:44.635Z,10.52
2022-12-14T06:31:16.774Z,10.48
2022-12-14T06:33:44.144Z,9.40
2022-12-14T06:36:30.720Z,10.60
2022-12-14T06:39:01.159Z,9.45
2022-12-14T06:41:27.726Z,10.40
2022-12-14T06:43:54.463Z,10.75
2022-12-14T06:46:22.770Z,10.63
2022-12-14T06:48:54.174Z,9.82
2022-12-14T06:51:22.128Z,9.77
2022-12-14T06:53:56.463Z,10.63
2022-12-14T06:56:24.923Z,9.02
2022-12-14T06:58:53.114Z,9.55
2022-12-14T07:01:21.906Z,10.43
2022-12-14T07:03:53.750Z,9.73
2022-12-14T07:06:21.906Z,10.80
2022-12-14T07:08:49.062Z,10.05
2022-12-14T07:11:17.179Z,10.02
2022-12-14T07:13:43.840Z,9.77
2022-12-14T07:16:21.429Z,10.10
2022-12-14T07:18:48.740Z,9.88
2022-12-14T07:21:16.982Z,9.85
2022-12-14T07:23:45.406Z,9.82
2022-12-14T07:26:27.419Z,10.18
2022-12-14T07:28:55.034Z,9.50
2022-12-14T07:31:24.503Z,10.43
2022-12-14T07:33:55.758Z,10.77
2022-12-14T07:36:24.393Z,10.17
2022-12-14T07:38:52.197Z,9.98
2022-12-14T07:41:23.166Z,10.00
2022-12-14T07:43:51.299Z,9.93
2022-12-14T07:46:23.071Z,11.00
2022-12-14T07:48:52.360Z,10.63
2022-12-14T07:51:21.909Z,11.82
2022-12-14T07:53:50.008Z,10.98
2022-12-14T07:56:18.961Z,11.20
2022-12-14T07:58:45.728Z,11.32
2022-12-14T08:01:22.331Z,11.50
2022-12-14T08:03:58.214Z,10.02
2022-12-14T08:06:27.726Z,10.10
2022-12-14T08:08:55.558Z,10.73
2022-12-14T08:11:22.788Z,11.18
2022-12-14T08:14:05.541Z,10.98
2022-12-14T08:16:32.869Z,10.60
2022-12-14T08:19:00.739Z,11.85
2022-12-14T08:21:28.334Z,10.75
2022-12-14T08:23:56.180Z,10.98
2022-12-14T08:26:24.920Z,10.27
2022-12-14T08:28:54.736Z,10.82
2022-12-14T08:31:24.027Z,9.80
2022-12-14T08:33:51.639Z,10.80
2022-12-14T08:36:24.508Z,10.13
2022-12-14T08:38:55.742Z,10.23
2022-12-14T08:41:23.153Z,10.93
2022-12-14T08:43:51.532Z,11.48
2022-12-14T08:46:18.805Z,11.50
2022-12-14T08:48:45.665Z,11.27
2022-12-14T08:51:12.435Z,11.60
2022-12-14T08:53:39.515Z,11.45
2022-12-14T08:56:11.202Z,11.27
2022-12-14T08:58:40.049Z,12.85
2022-12-14T09:01:15.887Z,12.82
2022-12-14T09:03:46.915Z,11.88
2022-12-14T09:06:16.666Z,11.98
2022-12-14T09:08:43.258Z,12.73
2022-12-14T09:11:15.152Z,12.60
2022-12-14T09:13:42.974Z,12.43
2022-12-14T09:16:20.658Z,12.73
2022-12-14T09:18:48.775Z,12.02
2022-12-14T09:21:16.347Z,12.20
2022-12-14T09:23:44.108Z,13.27
2022-12-14T09:26:13.472Z,12.07
2022-12-14T09:28:42.054Z,12.63
2022-12-14T09:31:11.586Z,13.75
2022-12-14T09:33:39.728Z,11.68
2022-12-14T09:36:12.271Z,12.80
2022-12-14T09:38:39.778Z,13.65
2022-12-14T09:41:23.383Z,12.35
2022-12-14T09:44:06.469Z,12.95
2022-12-14T09:47:09.242Z,12.98
2022-12-14T09:49:48.123Z,12.77
2022-12-14T09:52:24.549Z,13.05
2022-12-14T09:54:52.387Z,13.15
2022-12-14T09:57:18.920Z,12.07
2022-12-14T09:59:45.582Z,12.38
2022-12-14T10:02:41.543Z,12.27
2022-12-14T10:05:17.143Z,13.00
2022-12-14T10:08:38.049Z,12.80
2022-12-14T10:11:21.903Z,12.15
2022-12-14T10:14:20.166Z,11.65
2022-12-14T10:17:02.788Z,13.27
2022-12-14T10:19:53.380Z,11.70
2022-12-14T10:22:24.088Z,12.52
2022-12-14T10:25:21.470Z,11.65
2022-12-14T10:28:12.399Z,11.95
2022-12-14T10:30:42.249Z,12.88
2022-12-14T10:33:20.154Z,11.57
2022-12-14T10:35:54.025Z,13.90
2022-12-14T10:38:43.321Z,12.35
2022-12-14T10:41:49.741Z,13.15
2022-12-14T10:44:51.489Z,12.40
2022-12-14T10:47:38.725Z,12.88
2022-12-14T10:50:29.712Z,10.55
2022-12-14T10:52:58.166Z,12.07
2022-12-14T10:55:32.084Z,12.05
2022-12-14T10:57:58.729Z,12.73
2022-12-14T11:00:25.621Z,12.32
2022-12-14T11:02:55.756Z,11.57
2022-12-14T11:05:40.326Z,12.32
2022-12-14T11:08:08.733Z,11.50
2022-12-14T11:10:39.536Z,12.38
2022-12-14T11:13:06.588Z,11.00
2022-12-14T11:15:40.759Z,12.07
2022-12-14T11:18:16.769Z,11.48
2022-12-14T11:20:53.964Z,11.48
2022-12-14T11:23:49.862Z,11.65
2022-12-14T11:26:39.128Z,10.80
2022-12-14T11:29:16.413Z,9.35
2022-12-14T11:31:48.560Z,10.65
2022-12-14T11:34:30.276Z,9.85
2022-12-14T11:37:11.623Z,10.20
2022-12-14T11:39:41.678Z,8.93
2022-12-14T11:42:19.627Z,10.52
2022-12-14T11:44:47.956Z,9.18
2022-12-14T11:47:17.552Z,9.27
2022-12-14T11:49:50.664Z,9.32
2022-12-14T11:52:26.249Z,10.48
2022-12-14T11:54:52.774Z,9.73
2022-12-14T11:57:29.870Z,10.15
2022-12-14T11:59:57.732Z,10.48
2022-12-14T12:02:28.828Z,10.13
2022-12-14T12:05:14.225Z,8.90
2022-12-14T12:07:52.934Z,9.32
2022-12-14T12:10:24.331Z,8.63
2022-12-14T12:13:00.525Z,8.10
2022-12-14T12:15:49.758Z,9.13
2022-12-14T12:18:23.709Z,9.30
2022-12-14T12:20:59.360Z,8.13
2022-12-14T12:23:33.848Z,7.90
2022-12-14T12:26:03.416Z,7.82
2022-12-14T12:28:34.672Z,8.18
2022-12-14T12:31:11.123Z,7.97
2022-12-14T12:33:54.351Z,7.82
2022-12-14T12:36:24.238Z,7.95
2022-12-14T12:38:53.912Z,8.25
2022-12-14T12:41:20.561Z,7.55
2022-12-14T12:43:58.332Z,7.38
2022-12-14T12:46:30.416Z,7.00
2022-12-14T12:48:59.752Z,8.38
2022-12-14T12:51:30.564Z,7.70
2022-12-14T12:54:02.449Z,7.70
2022-12-14T12:56:52.980Z,7.93
2022-12-14T12:59:30.970Z,8.68
2022-12-14T13:02:03.240Z,8.25
2022-12-14T13:04:38.250Z,8.70
2022-12-14T13:07:37.541Z,8.45
2022-12-14T13:10:28.518Z,9.15
2022-12-14T13:12:57.332Z,8.63
2022-12-14T13:15:25.994Z,8.98
2022-12-14T13:18:57.333Z,9.07
2022-12-14T13:21:35.048Z,9.13
2022-12-14T13:24:03.306Z,8.80
2022-12-14T13:27:04.490Z,8.30
2022-12-14T13:30:01.192Z,7.95
2022-12-14T13:32:42.866Z,7.90
2022-12-14T13:35:23.670Z,6.75
2022-12-14T13:37:53.047Z,7.13
2022-12-14T13:40:28.542Z,6.25
2022-12-14T13:43:17.171Z,6.63
2022-12-14T13:45:49.519Z,6.68
2022-12-14T13:48:28.701Z,7.00
2022-12-14T13:51:03.228Z,6.43
2022-12-14T13:53:48.211Z,5.05
2022-12-14T13:56:26.377Z,5.30
2022-12-14T13:58:59.285Z,5.00
2022-12-14T14:01:48.069Z,4.97
2022-12-14T14:04:25.365Z,8.30
2022-12-14T14:06:54.394Z,13.60
2022-12-14T14:09:26.533Z,7.75
2022-12-14T14:12:01.707Z,8.50
2022-12-14T14:14:50.756Z,6.50
2022-12-14T14:17:37.196Z,14.55
2022-12-14T14:20:34.066Z,7.50
2022-12-14T14:23:18.531Z,7.15
2022-12-14T14:26:13.897Z,6.70
2022-12-14T14:28:40.689Z,6.32
2022-12-14T14:31:07.777Z,5.70
2022-12-14T14:33:55.096Z,6.07
2022-12-14T14:36:33.529Z,6.30
2022-12-14T14:39:31.385Z,5.88
2022-12-14T14:41:55.548Z,6.50
2022-12-14T14:44:33.359Z,11.88
2022-12-14T14:47:00.325Z,11.20
2022-12-14T14:49:40.780Z,10.23
2022-12-14T14:52:47.555Z,9.20
2022-12-14T14:55:51.993Z,9.18
2022-12-14T14:58:26.007Z,11.13
2022-12-14T15:01:02.618Z,7.43
2022-12-14T15:03:45.173Z,7.93
2022-12-14T15:06:22.298Z,8.60
2022-12-14T15:09:07.105Z,7.43
2022-12-14T15:11:46.430Z,6.90
2022-12-14T15:14:46.635Z,7.90
2022-12-14T15:17:23.989Z,7.85
2022-12-14T15:19:53.914Z,6.85
2022-12-14T15:22:37.976Z,6.38
2022-12-14T15:25:10.299Z,7.75
2022-12-14T15:27:39.338Z,8.40
2022-12-14T15:30:11.869Z,8.25
2022-12-14T15:32:47.431Z,6.53
2022-12-14T15:35:17.810Z,7.20
2022-12-14T15:37:50.048Z,6.95
2022-12-14T15:40:22.993Z,7.97
2022-12-14T15:42:55.463Z,7.63
2022-12-14T15:45:31.028Z,7.22
2022-12-14T15:48:26.127Z,9.07
2022-12-14T15:50:55.402Z,8.73
2022-12-14T15:53:36.683Z,9.38
2022-12-14T15:56:18.103Z,8.93
2022-12-14T15:58:45.292Z,13.05
2022-12-14T16:01:19.777Z,14.27
2022-12-14T16:03:51.811Z,12.63
2022-12-14T16:06:19.514Z,12.40
2022-12-14T16:09:01.934Z,11.93
2022-12-14T16:11:37.502Z,16.83
2022-12-14T16:14:30.038Z,10.27
2022-12-14T16:16:57.242Z,10.05
2022-12-14T16:19:29.830Z,9.18
2022-12-14T16:22:10.303Z,9.07
2022-12-14T16:24:38.257Z,9.10
2022-12-14T16:27:17.486Z,10.05
2022-12-14T16:30:15.120Z,8.55
2022-12-14T16:32:42.126Z,8.68
2022-12-14T16:35:18.063Z,8.63
2022-12-14T16:37:47.039Z,7.57
2022-12-14T16:41:02.543Z,9.35
2022-12-14T16:43:39.360Z,10.15
2022-12-14T16:46:13.420Z,8.70
2022-12-14T16:48:43.159Z,8.68
2022-12-14T16:51:33.097Z,8.83
2022-12-14T16:54:25.196Z,8.38
2022-12-14T16:56:58.075Z,8.60
2022-12-14T16:59:33.615Z,8.70
2022-12-14T17:02:00.400Z,9.10
2022-12-14T17:04:34.479Z,11.65
2022-12-14T17:07:01.578Z,9.13
2022-12-14T17:09:30.291Z,8.85
2022-12-14T17:12:02.438Z,9.85
2022-12-14T17:14:29.153Z,10.32
2022-12-14T17:17:04.850Z,12.40
2022-12-14T17:19:38.520Z,10.40
2022-12-14T17:22:11.907Z,8.90
2022-12-14T17:24:38.500Z,8.52
2022-12-14T17:27:05.234Z,8.93
2022-12-14T17:29:33.216Z,8.15
2022-12-14T17:32:01.579Z,9.70
2022-12-14T17:34:29.975Z,10.65
2022-12-14T17:36:57.256Z,10.85
2022-12-14T17:39:24.746Z,12.82
2022-12-14T17:41:51.512Z,11.88
2022-12-14T17:44:20.537Z,10.50
2022-12-14T17:46:50.431Z,10.18
2022-12-14T17:49:33.771Z,11.75
2022-12-14T17:52:04.043Z,11.02
2022-12-14T17:54:32.086Z,10.75
2022-12-14T17:56:58.990Z,11.80
2022-12-14T17:59:26.271Z,12.73
2022-12-14T18:01:52.947Z,12.10
2022-12-14T18:04:19.867Z,10.60
2022-12-14T18:06:46.523Z,16.65
2022-12-14T18:09:13.211Z,18.73
2022-12-14T18:12:00.244Z,14.80
2022-12-14T18:14:26.437Z,15.60
2022-12-14T18:16:55.525Z,14.77
2022-12-14T18:19:22.091Z,14.82
2022-12-14T18:21:48.700Z,15.80
2022-12-14T18:24:19.072Z,15.75
2022-12-14T18:26:48.035Z,16.98
2022-12-14T18:29:15.823Z,18.77
2022-12-14T18:31:43.043Z,18.23
2022-12-14T18:34:12.170Z,17.20
2022-12-14T18:36:39.513Z,14.48
2022-12-14T18:39:06.242Z,22.17
2022-12-14T18:41:33.595Z,27.58
2022-12-14T18:44:00.983Z,39.40
2022-12-14T18:46:27.880Z,32.97
2022-12-14T18:48:54.941Z,28.00
2022-12-14T18:51:23.674Z,17.58
2022-12-14T18:53:51.658Z,12.60
2022-12-14T18:56:19.265Z,13.85
2022-12-14T18:58:46.417Z,19.75
2022-12-14T19:01:15.987Z,61.25
2022-12-14T19:03:43.579Z,29.88
2022-12-14T19:09:05.720Z,14.20
2022-12-14T19:11:39.083Z,13.05
2022-12-14T19:14:05.719Z,12.25
2022-12-14T19:16:32.535Z,13.98
2022-12-14T19:18:59.889Z,16.83
2022-12-14T19:21:27.869Z,19.83
2022-12-14T19:23:55.634Z,17.52
2022-12-14T19:26:22.326Z,17.38
2022-12-14T19:28:48.909Z,16.75
2022-12-14T19:31:15.660Z,16.75
2022-12-14T19:33:42.396Z,21.92
2022-12-14T19:36:09.516Z,18.38
2022-12-14T19:38:37.054Z,19.17
2022-12-14T19:41:10.370Z,17.08
2022-12-14T19:43:37.195Z,16.73
2022-12-14T19:46:08.580Z,15.38
2022-12-14T19:48:35.616Z,16.90
2022-12-14T19:51:11.137Z,18.42
2022-12-14T19:53:38.962Z,17.60
2022-12-14T19:56:06.044Z,22.90
2022-12-14T19:58:32.748Z,23.13
2022-12-14T20:00:59.430Z,24.33
2022-12-14T20:03:26.961Z,20.60
2022-12-14T20:05:56.361Z,21.23
2022-12-14T20:08:23.457Z,22.25
2022-12-14T20:10:52.657Z,21.50
2022-12-14T20:13:20.575Z,19.23
2022-12-14T20:15:58.081Z,19.30
2022-12-14T20:18:25.671Z,21.45
2022-12-14T20:20:52.818Z,21.38
2022-12-14T20:23:21.539Z,26.73
2022-12-14T20:25:49.244Z,26.77
2022-12-14T20:28:16.088Z,23.88
2022-12-14T20:30:47.609Z,17.33
2022-12-14T20:33:14.602Z,14.95
2022-12-14T20:35:41.244Z,16.95
2022-12-14T20:38:07.857Z,15.38
2022-12-14T20:40:38.623Z,16.63
2022-12-14T20:43:06.342Z,16.50
2022-12-14T20:45:37.935Z,18.05
2022-12-14T20:48:04.934Z,16.88
2022-12-14T20:50:32.006Z,17.25
2022-12-14T20:52:58.693Z,19.20
2022-12-14T20:55:25.310Z,23.90
2022-12-14T20:57:51.949Z,25.75
2022-12-14T21:00:18.913Z,22.25
2022-12-14T21:02:45.748Z,23.17
2022-12-14T21:05:12.547Z,21.25
2022-12-14T21:07:39.275Z,23.60
2022-12-14T21:10:07.320Z,25.15
2022-12-14T21:12:34.647Z,23.55
2022-12-14T21:15:01.538Z,29.10
2022-12-14T21:17:30.077Z,26.52
2022-12-14T21:19:57.716Z,21.98
2022-12-14T21:22:27.592Z,20.65
2022-12-14T21:25:03.619Z,21.77
2022-12-14T21:27:31.627Z,20.63
2022-12-14T21:29:58.367Z,21.58
2022-12-14T21:32:25.031Z,20.17
2022-12-14T21:34:51.678Z,18.27
2022-12-14T21:37:18.737Z,17.23
2022-12-14T21:39:51.979Z,17.48
2022-12-14T21:42:20.684Z,16.08
2022-12-14T21:44:49.371Z,17.95
2022-12-14T21:47:22.469Z,16.80
2022-12-14T21:49:49.228Z,16.92
2022-12-14T21:52:18.911Z,16.88
2022-12-14T21:54:46.057Z,17.13
2022-12-14T21:57:36.121Z,16.85
2022-12-14T22:00:04.673Z,16.63
2022-12-14T22:02:31.491Z,15.98
2022-12-14T22:04:58.289Z,18.73
2022-12-14T22:07:31.940Z,18.52
2022-12-14T22:09:58.659Z,19.08
2022-12-14T22:12:25.312Z,17.02
2022-12-14T22:14:52.009Z,15.85
2022-12-14T22:17:18.726Z,15.32
2022-12-14T22:19:45.335Z,14.18
2022-12-14T22:22:16.150Z,14.68
2022-12-14T22:24:43.639Z,13.00
2022-12-14T22:27:12.003Z,14.80
2022-12-14T22:29:38.754Z,14.73
2022-12-14T22:32:06.777Z,14.80
2022-12-14T22:34:33.495Z,15.50
2022-12-14T22:37:00.080Z,15.70
2022-12-14T22:39:26.721Z,14.13
2022-12-14T22:41:53.369Z,14.52
2022-12-14T22:44:19.970Z,15.20
2022-12-14T22:46:46.660Z,15.50
2022-12-14T22:49:17.668Z,17.70
2022-12-14T22:51:45.289Z,14.52
2022-12-14T22:54:27.217Z,15.48
2022-12-14T22:57:04.093Z,14.60
2022-12-14T22:59:36.273Z,13.77
2022-12-14T23:02:03.324Z,13.65
2022-12-14T23:04:30.291Z,14.50
2022-12-14T23:06:56.893Z,14.18
2022-12-14T23:09:42.305Z,15.13
2022-12-14T23:12:27.676Z,15.15
2022-12-14T23:15:12.938Z,15.52
2022-12-14T23:17:58.291Z,15.82
2022-12-14T23:20:43.635Z,16.23
2022-12-14T23:23:29.646Z,16.25
2022-12-14T23:26:19.183Z,16.10
2022-12-14T23:29:04.423Z,16.75
2022-12-14T23:31:49.848Z,16.42
2022-12-14T23:34:35.235Z,16.45
2022-12-14T23:37:20.811Z,17.45
2022-12-14T23:40:06.810Z,18.77
2022-12-14T23:42:52.178Z,20.08
2022-12-14T23:45:37.530Z,18.08
2022-12-14T23:48:22.891Z,19.45
2022-12-14T23:51:08.211Z,22.80
2022-12-14T23:53:53.677Z,19.73
2022-12-14T23:56:39.034Z,20.50
2022-12-14T23:59:29.932Z,20.55
